Latest Weather Observations for Launceston Airport

IDT60801

Issued at 3:31 pm EST Saturday 5 September 2015 (issued every 30 minutes, with the page automatically refreshed every 10 minutes)

About weather observations | Map of weather stations | Latest weather observations for TAS | Other Formats
Station Details ID: 091311 Name: LAUNCESTON AIRPORT Lat: -41.55 Lon: 147.21 Height: 166.9 m
Data from the previous 72 hours. | See also: Recent months at Launceston Airport
Date/Time
EST
Temp
°C
App
Temp
°C
Dew
Point
Rel
Hum
%
Delta-T
°C
Wind Press
QNH
hPa
Press
MSL
hPa
Rain
since 9 am
mm
Dir
 
Spd
km/h
Gust
km/h
Spd
kts
Gust
kts
05/03:00pm 12.1 6.4 0.5 45 4.8 SE 20 28 11 15 1020.7 1020.9 0.0
05/02:30pm 13.0 8.9 -0.3 40 5.5 ESE 11 15 6 8 1020.5 1020.7 0.0
05/02:00pm 13.4 9.1 0.8 42 5.4 SE 13 24 7 13 1020.4 1020.6 0.0
05/01:30pm 12.0 6.9 0.8 46 4.7 SE 17 24 9 13 1020.5 1020.7 0.0
05/01:00pm 12.7 9.1 0.8 44 5.0 SE 9 15 5 8 1020.8 1021.0 0.0
05/12:30pm 12.3 8.7 0.7 45 4.9 S 9 19 5 10 1021.2 1021.4 0.0
05/12:00pm 11.9 8.0 1.3 48 4.5 SE 11 17 6 9 1021.2 1021.4 0.0
05/11:30am 11.8 7.6 1.7 50 4.3 SSE 13 19 7 10 1021.2 1021.4 0.0
05/11:00am 12.4 8.0 2.6 51 4.3 SSE 15 22 8 12 1021.2 1021.4 0.0
05/10:30am 10.8 7.6 2.9 58 3.5 ESE 9 15 5 8 1021.4 1021.6 0.0
05/10:00am 11.2 8.7 4.9 65 2.9 E 7 11 4 6 1021.4 1021.6 0.0
05/09:30am 10.1 8.2 4.9 70 2.4 W 4 9 2 5 1021.4 1021.6 0.0
05/09:00am 9.0 6.7 5.0 76 1.8 NE 6 11 3 6 1021.3 1021.5 0.0
05/08:30am 8.2 6.8 5.3 82 1.3 N 2 9 1 5 1021.1 1021.3 0.0
05/08:00am 5.9 4.7 4.4 90 0.6 CALM 0 0 0 0 1020.9 1021.1 0.0
05/07:30am 4.8 2.1 3.5 91 0.5 NW 7 9 4 5 1020.4 1020.6 0.0
05/07:00am 4.2 2.7 2.9 91 0.5 CALM 0 7 0 4 1019.9 1020.1 0.0
05/06:30am 3.6 2.0 2.4 92 0.5 CALM 0 0 0 0 1019.6 1019.8 0.0
05/06:00am 3.0 1.3 2.0 93 0.4 CALM 0 2 0 1 1019.2 1019.4 0.0
05/05:30am 3.7 0.8 2.8 94 0.4 NNW 7 9 4 5 1018.8 1019.0 0.0
05/05:00am 3.1 -1.0 2.2 94 0.4 NNW 13 13 7 7 1018.3 1018.5 0.0
05/04:30am 3.2 -0.6 2.0 92 0.5 NNW 11 13 6 7 1017.7 1018.0 0.0
05/04:00am 3.4 -1.2 1.8 89 0.6 NNW 15 17 8 9 1017.5 1017.8 0.0
05/03:30am 3.5 0.7 2.0 90 0.6 N 6 9 3 5 1017.6 1017.9 0.0
05/03:00am 3.8 0.0 1.7 86 0.8 NNW 11 13 6 7 1017.6 1017.9 0.0
05/02:30am 5.1 2.3 3.3 88 0.8 N 7 7 4 4 1017.7 1018.0 0.0
05/02:00am 4.3 1.0 2.3 87 0.8 NNW 9 13 5 7 1017.9 1018.2 0.0
05/01:30am 3.8 0.0 1.7 86 0.8 NNW 11 13 6 7 1017.9 1018.2 0.0
05/01:00am 4.6 0.8 2.0 83 1.0 N 11 13 6 7 1018.0 1018.3 0.0
05/12:30am 5.5 1.1 2.5 81 1.2 NNE 15 19 8 10 1017.9 1018.2 0.0
05/12:00am 5.1 1.4 2.1 81 1.2 NNE 11 15 6 8 1017.7 1018.0 0.0
 
Date/Time
EST
Temp
°C
App
Temp
°C
Dew
Point
Rel
Hum
%
Delta-T
°C
Wind Press
QNH
hPa
Press
MSL
hPa
Rain
since 9 am
mm
Dir
 
Spd
km/h
Gust
km/h
Spd
kts
Gust
kts
04/11:30pm 4.5 0.3 1.5 81 1.2 N 13 15 7 8 1017.6 1017.9 0.0
04/11:00pm 5.3 1.1 1.8 78 1.4 N 13 17 7 9 1017.8 1018.1 0.0
04/10:30pm 7.9 3.8 2.0 66 2.5 WNW 13 22 7 12 1017.8 1018.1 0.0
04/10:00pm 8.4 3.9 2.0 64 2.7 WNW 15 22 8 12 1017.8 1018.1 0.0
04/09:30pm 8.3 3.4 2.1 65 2.6 NW 17 22 9 12 1017.7 1018.0 0.0
04/09:00pm 7.7 2.4 2.0 67 2.4 NW 19 22 10 12 1017.5 1017.8 0.0
04/08:30pm 7.2 2.3 2.1 70 2.1 NW 17 20 9 11 1017.4 1017.7 0.0
04/08:00pm 7.8 3.5 1.2 63 2.7 NW 13 17 7 9 1017.4 1017.7 0.0
04/07:30pm 8.9 3.5 1.3 59 3.1 WNW 19 20 10 11 1017.2 1017.5 0.0
04/07:00pm 9.7 4.7 1.6 57 3.4 WNW 17 20 9 11 1017.1 1017.4 0.0
04/06:30pm 8.6 3.6 1.1 59 3.1 NW 17 20 9 11 1017.0 1017.3 0.0
04/06:00pm 10.3 4.9 1.2 53 3.8 NW 19 30 10 16 1016.5 1016.7 0.0
04/05:30pm 12.1 6.7 1.4 48 4.6 WNW 19 24 10 13 1016.1 1016.3 0.0
04/05:00pm 13.2 7.6 1.5 45 5.1 WNW 20 26 11 14 1016.0 1016.2 0.0
04/04:30pm 14.0 8.0 1.3 42 5.5 WNW 22 33 12 18 1015.8 1016.0 0.0
04/04:00pm 14.6 8.3 1.5 41 5.7 WNW 24 32 13 17 1015.7 1015.9 0.0
04/03:30pm 14.8 8.1 1.7 41 5.8 WNW 26 35 14 19 1015.6 1015.8 0.0
04/03:00pm 15.5 9.6 1.6 39 6.2 WNW 22 33 12 18 1015.6 1015.8 0.0
04/02:30pm 15.4 8.3 1.2 38 6.2 NW 28 33 15 18 1015.6 1015.8 0.0
04/02:00pm 14.8 8.1 1.3 40 5.9 NW 26 33 14 18 1016.0 1016.2 0.0
04/01:30pm 15.0 9.5 1.9 41 5.8 WNW 20 30 11 16 1016.5 1016.7 0.0
04/01:00pm 13.8 8.0 2.4 46 5.1 NNW 22 32 12 17 1016.9 1017.2 0.0
04/12:30pm 13.3 7.2 2.5 48 4.8 N 24 30 13 16 1017.4 1017.7 0.0
04/12:00pm 13.3 7.7 1.3 44 5.2 NNW 20 28 11 15 1018.0 1018.3 0.0
04/11:30am 12.0 6.3 2.7 53 4.1 N 22 30 12 16 1018.5 1018.7 0.0
04/11:00am 11.7 6.0 2.7 54 3.9 NNW 22 28 12 15 1018.7 1018.9 0.0
04/10:30am 11.6 6.5 4.1 60 3.4 NNW 20 28 11 15 1018.9 1019.1 0.0
04/10:00am 10.8 5.9 4.9 67 2.7 N 20 24 11 13 1019.3 1019.5 0.0
04/09:30am 9.7 4.8 5.1 73 2.1 NNW 20 26 11 14 1019.6 1019.8 0.0
04/09:00am 9.1 4.3 5.7 79 1.6 NNW 20 26 11 14 1019.8 1020.0 0.0
04/08:49am 9.5 5.4 6.2 80 1.5 NW 17 20 9 11 1019.9 1020.1 0.0
04/08:30am 8.6 4.3 5.4 80 1.5 NW 17 22 9 12 1020.1 1020.3 0.0
04/08:00am 6.3 4.1 3.5 82 1.2 NW 4 7 2 4 1020.5 1020.7 0.0
04/07:45am 5.3 3.0 2.7 83 1.1 NE 4 6 2 3 1020.5 1020.7 0.0
04/07:30am 4.7 1.8 2.6 86 0.9 NE 7 7 4 4 1020.4 1020.6 0.0
04/07:00am 3.1 1.0 1.5 89 0.6 NNW 2 7 1 4 1020.1 1020.3 0.0
04/06:30am 3.0 -0.5 1.2 88 0.7 NW 9 11 5 6 1019.9 1020.1 0.0
04/06:00am 2.9 -0.2 1.1 88 0.7 N 7 9 4 5 1019.9 1020.1 0.0
04/05:30am 3.1 1.3 1.5 89 0.6 CALM 0 6 0 3 1020.1 1020.3 0.0
04/05:00am 2.3 -0.9 0.7 89 0.6 NW 7 7 4 4 1020.2 1020.4 0.0
04/04:30am 2.7 -0.5 0.6 86 0.8 NNW 7 9 4 5 1019.9 1020.1 0.0
04/04:00am 4.2 2.1 1.4 82 1.1 WSW 2 6 1 3 1019.8 1020.0 0.0
04/03:30am 3.9 1.4 1.6 85 0.9 WSW 4 6 2 3 1020.0 1020.2 0.0
04/03:00am 3.2 1.0 1.1 86 0.8 WSW 2 6 1 3 1020.2 1020.4 0.0
04/02:30am 3.0 1.2 1.1 87 0.7 CALM 0 0 0 0 1020.3 1020.5 0.0
04/02:00am 2.9 1.0 0.6 85 0.9 CALM 0 2 0 1 1020.4 1020.6 0.0
04/01:30am 3.0 -0.2 0.7 85 0.9 SSE 7 7 4 4 1020.6 1020.8 0.0
04/01:00am 3.1 0.1 0.8 85 0.9 S 6 9 3 5 1020.5 1020.7 0.0
04/12:30am 2.4 -0.7 0.0 84 0.9 SW 6 6 3 3 1020.6 1020.8 0.0
04/12:00am 2.5 -0.8 -0.1 83 1.0 SE 7 7 4 4 1020.7 1020.9 0.0
 
Date/Time
EST
Temp
°C
App
Temp
°C
Dew
Point
Rel
Hum
%
Delta-T
°C
Wind Press
QNH
hPa
Press
MSL
hPa
Rain
since 9 am
mm
Dir
 
Spd
km/h
Gust
km/h
Spd
kts
Gust
kts
03/11:30pm 2.5 -1.2 -0.1 83 1.0 SSW 9 13 5 7 1020.5 1020.7 0.0
03/11:00pm 2.8 -0.6 -0.3 80 1.1 SSE 7 11 4 6 1020.5 1020.7 0.0
03/10:30pm 3.2 -0.4 0.3 81 1.1 S 9 13 5 7 1020.3 1020.5 0.0
03/10:00pm 3.8 -0.6 0.5 79 1.3 S 13 17 7 9 1020.1 1020.3 0.0
03/09:30pm 4.2 -0.9 0.7 78 1.4 SSE 17 20 9 11 1019.9 1020.1 0.0
03/09:00pm 5.0 -0.7 0.8 74 1.6 SSE 20 26 11 14 1019.7 1019.9 0.0
03/08:30pm 5.4 -0.1 0.6 71 1.9 SSE 19 24 10 13 1019.4 1019.6 0.0
03/08:00pm 5.2 -0.4 0.2 70 1.9 SSE 19 20 10 11 1019.0 1019.2 0.0
03/07:30pm 6.7 2.7 0.2 63 2.6 SSE 11 13 6 7 1018.7 1018.9 0.0
03/07:00pm 7.8 4.0 -0.9 54 3.4 ESE 9 9 5 5 1018.4 1018.6 0.0
03/06:30pm 8.1 4.6 -1.1 52 3.6 SE 7 9 4 5 1017.9 1018.2 0.0
03/06:00pm 8.3 4.6 0.1 56 3.3 SE 9 11 5 6 1017.3 1017.6 0.0
03/05:30pm 9.1 5.0 -0.2 52 3.7 ESE 11 15 6 8 1016.7 1016.9 0.0
03/05:00pm 10.4 5.6 0.2 49 4.2 ESE 15 19 8 10 1016.1 1016.3 0.0
03/04:30pm 11.3 6.2 1.0 49 4.3 SE 17 24 9 13 1015.7 1015.9 0.0
03/04:00pm 12.4 6.9 0.8 45 4.9 ESE 19 24 10 13 1015.4 1015.6 0.0
03/03:30pm 13.4 8.8 1.7 45 5.1 ESE 15 24 8 13 1015.0 1015.2 0.0
03/03:00pm 12.0 6.2 2.2 51 4.3 ESE 22 30 12 16 1014.7 1014.9 0.0
03/02:30pm 13.3 7.4 1.6 45 5.1 SE 22 33 12 18 1014.5 1014.7 0.0
03/02:00pm 12.8 5.6 0.9 44 5.1 SE 28 35 15 19 1014.3 1014.5 0.0
03/01:30pm 13.4 6.7 1.7 45 5.1 ESE 26 37 14 20 1013.8 1014.0 0.0
03/01:00pm 12.6 5.4 3.0 52 4.3 SE 30 39 16 21 1013.9 1014.1 0.0
03/12:30pm 12.2 5.2 3.9 57 3.8 SE 30 41 16 22 1014.0 1014.2 0.0
03/12:00pm 11.6 4.2 3.9 59 3.5 SE 32 43 17 23 1014.0 1014.2 0.0
03/11:30am 12.3 5.4 4.5 59 3.6 SE 30 39 16 21 1013.8 1014.0 0.0
03/11:00am 12.3 5.1 4.8 60 3.5 SE 32 43 17 23 1013.5 1013.7 0.0
03/10:30am 12.2 5.7 4.9 61 3.4 SE 28 41 15 22 1013.1 1013.3 0.0
03/10:00am 11.5 5.1 5.4 66 2.8 SE 28 39 15 21 1013.0 1013.2 0.0
03/09:30am 11.3 5.0 5.6 68 2.7 SE 28 33 15 18 1012.7 1012.9 0.0
03/09:00am 10.8 6.6 7.5 80 1.6 SSE 19 26 10 14 1012.2 1012.4 0.2
03/08:30am 9.1 3.7 6.5 84 1.2 SSE 24 32 13 17 1012.0 1012.2 0.2
03/08:00am 7.9 3.4 6.0 88 0.9 SSE 19 28 10 15 1011.5 1011.7 0.2
03/07:30am 7.5 2.4 5.8 89 0.8 SSE 22 28 12 15 1010.8 1011.0 0.2
03/07:00am 6.8 3.3 5.3 90 0.7 SSW 13 17 7 9 1010.0 1010.2 0.2
03/06:30am 6.6 3.5 5.4 92 0.5 SSW 11 15 6 8 1009.3 1009.5 0.2
03/06:01am 6.3 4.1 5.4 94 0.4 SE 6 7 3 4 1009.0 1009.2 0.2
03/06:00am 6.3 4.1 5.4 94 0.4 SE 6 9 3 5 1009.0 1009.2 0.2
03/05:30am 6.2 3.4 5.3 94 0.4 SE 9 13 5 7 1009.0 1009.2 0.2
03/05:00am 6.5 3.0 5.6 94 0.4 S 13 15 7 8 1008.9 1009.1 0.2
03/04:30am 6.4 3.3 5.5 94 0.4 S 11 17 6 9 1008.7 1008.9 0.2
03/04:22am 6.5 2.3 5.6 94 0.4 SSW 17 24 9 13 1008.6 1008.8 0.2
03/04:12am 6.8 3.4 6.1 95 0.3 SW 13 22 7 12 1008.5 1008.7 0.2
03/04:00am 6.4 4.1 5.7 95 0.3 WNW 7 9 4 5 1008.1 1008.3 0.2
03/03:30am 6.1 3.9 5.2 94 0.4 NE 6 9 3 5 1008.1 1008.3 0.2
03/03:21am 6.2 3.8 5.3 94 0.4 NE 7 13 4 7 1008.1 1008.3 0.2
03/03:00am 5.9 3.6 5.0 94 0.4 W 6 9 3 5 1008.3 1008.5 0.2
03/02:53am 6.6 4.5 5.9 95 0.3 SW 6 9 3 5 1008.4 1008.6 0.2
03/02:30am 6.0 3.8 5.3 95 0.3 SW 6 9 3 5 1008.7 1008.9 0.2
03/02:00am 5.7 4.5 4.8 94 0.4 CALM 0 2 0 1 1008.8 1009.0 0.2
03/01:30am 6.1 5.1 5.4 95 0.3 CALM 0 4 0 2 1009.0 1009.2 0.2
03/01:00am 5.7 3.4 4.8 94 0.4 N 6 9 3 5 1009.1 1009.3 0.2
03/12:30am 5.8 2.9 4.9 94 0.4 NNW 9 9 5 5 1009.4 1009.6 0.2
03/12:00am 5.9 3.0 4.9 93 0.4 N 9 9 5 5 1009.5 1009.7 0.2
 
Date/Time
EST
Temp
°C
App
Temp
°C
Dew
Point
Rel
Hum
%
Delta-T
°C
Wind Press
QNH
hPa
Press
MSL
hPa
Rain
since 9 am
mm
Dir
 
Spd
km/h
Gust
km/h
Spd
kts
Gust
kts
02/11:30pm 6.5 3.3 5.1 91 0.6 NNE 11 13 6 7 1009.5 1009.7 0.2
02/11:27pm 6.4 3.5 4.9 90 0.7 N 9 11 5 6 1009.5 1009.7 0.2
02/11:00pm 7.4 3.6 5.9 90 0.7 N 15 17 8 9 1009.8 1010.0 0.2
02/10:30pm 7.5 4.5 5.8 89 0.8 NW 11 13 6 7 1010.2 1010.4 0.2
02/10:00pm 7.4 3.2 5.9 90 0.7 NNW 17 19 9 10 1010.3 1010.5 0.2
02/09:30pm 7.0 2.8 5.5 90 0.7 NNW 17 19 9 10 1010.1 1010.3 0.2
02/09:00pm 7.1 3.3 5.6 90 0.7 NNW 15 20 8 11 1010.0 1010.2 0.2
02/08:30pm 6.8 2.5 5.1 89 0.8 NNW 17 20 9 11 1009.7 1009.9 0.2
02/08:00pm 7.1 2.2 4.9 86 1.0 NW 20 22 11 12 1009.4 1009.6 0.2
02/07:30pm 6.1 2.3 3.9 86 0.9 NW 13 17 7 9 1009.3 1009.5 0.2
02/07:00pm 6.4 2.7 4.4 87 0.9 NW 13 15 7 8 1009.0 1009.2 0.2
02/06:30pm 7.1 3.4 4.6 84 1.1 NNW 13 17 7 9 1009.0 1009.2 0.2
02/06:00pm 7.9 3.5 4.5 79 1.5 NNW 17 22 9 12 1009.0 1009.2 0.2
02/05:30pm 9.6 5.2 5.0 73 2.1 NW 17 20 9 11 1009.0 1009.2 0.2
02/05:00pm 11.3 7.0 5.4 67 2.7 NNW 17 22 9 12 1009.0 1009.2 0.2
02/04:30pm 10.8 6.2 5.6 70 2.4 NNW 19 24 10 13 1009.2 1009.4 0.2
02/04:00pm 11.4 5.9 5.7 68 2.7 NNW 24 32 13 17 1009.2 1009.4 0.2

Other Formats:

Comma delimited format used in spreadsheet applications
http://www.bom.gov.au/fwo/IDT60801/IDT60801.95966.axf

JavaScript Object Notation format (JSON) in row-major order
http://www.bom.gov.au/fwo/IDT60801/IDT60801.95966.json